LiveATC.Net - Listen to live air traffic control over the Internet! Contact LiveATC.net for advertising information


ICAO: KARB  IATA: ARB   Airport: Ann Arbor Municipal Airport
City: Ann Arbor   State/Province: Michigan
Country: United States   Continent: North America
KARB METAR Weather: KARB 030153Z AUTO 00000KT 10SM CLR 16/14 A2993 RMK AO2 SLP133 T01610144
KARB Flight Activity (FlightAware)
KARB Airport Info   (AirNav) (iFlightPlanner)
KARB Gnd/Twr
Feed Status: DOWN
Last heard on: 2014-06-18 20:06:03 (76 days 6 hours 2 minutes ago)
KARB Gnd/Twr Audio Archives
FacilityFrequency
Ann Arbor Ground121.600
Ann Arbor Tower120.300


NOTICE

Unauthorized use prohibited. See LiveATC.net Terms of Service


Find LiveATC Audio Streams


Airport/ARTCC Code

Frequency
(e.g., 124.400, 128.75)
Site-wide search

Browse LiveATC Feeds
LiveATC Coverage Map
Top 50 LiveATC Feeds
Bad Weather Areas

LiveATC FAQ
Offer a LiveATC Feed
Contact LiveATC.net
Press Inquiries

LiveATC on iPhone
LiveATC on Android

LiveATC Mobile
(Mobile browser)

ATC Audio Archives
Interesting Recordings

LiveATC Forums


Home Page
About LiveATC.net
Make a Donation
LiveATC Bookstore

Terms of Use
Privacy Policy

ATC/Radar Sites
U.S. ARTCC Freqs
Canadian Air Freqs

AIRMETs/SIGMETs

FAA Airport Status
Nat'l Airspace Status
Arrival Demand Charts


Server Software By:
Icecast.org
Liquidsoap

Please make a donation to help us keep growing!